Rawalpindi Weather



Rawalpindi's Current Weather

Temprature 23.67o few clouds

few clouds

Rain: 0 %

Min Temprature23.33o
Max Temprature24o
Humidity57
Wind Speed6.2 m/h
Sun Rise06:14:09
Sun Set17:31:34
Current Time: 18-Oct-2019 17:07:28
Lat/Lon: 33.6, 73.06




Rawalpindi's Geo Location



Rawalpindi's Weather Forecast

Time Overall Temp Min Temp Max Temp Humidity Wind Speed Rain
18-Oct-2019 (Fri)
20:00:00 clear sky 20.550 20.550 22.323 51 3.75 m/h 0 %
23:00:00 scattered clouds 20.310 20.310 21.639 52 2.79 m/h 0 %
19-Oct-2019 (Sat)
02:00:00 broken clouds 19.300 19.300 20.188 52 2.58 m/h 0 %
05:00:00 scattered clouds 19.490 19.490 19.928 52 3.12 m/h 0 %
08:00:00 overcast clouds 21.882 21.882 21.882 46 1.34 m/h 0 %
11:00:00 broken clouds 27.160 27.160 27.160 29 2.56 m/h 0 %
14:00:00 clear sky 28.933 28.933 28.933 24 3.86 m/h 0 %
17:00:00 clear sky 25.934 25.934 25.934 31 3.59 m/h 0 %
20:00:00 clear sky 22.651 22.651 22.651 36 1.91 m/h 0 %
23:00:00 clear sky 21.114 21.114 21.114 38 1.71 m/h 0 %
20-Oct-2019 (Sun)
02:00:00 clear sky 19.887 19.887 19.887 38 1.61 m/h 0 %
05:00:00 clear sky 18.778 18.778 18.778 39 1.19 m/h 0 %
08:00:00 clear sky 22.614 22.614 22.614 31 0.9 m/h 0 %
11:00:00 clear sky 27.330 27.330 27.330 25 2.24 m/h 0 %
14:00:00 scattered clouds 29.513 29.513 29.513 20 3.27 m/h 0 %
17:00:00 broken clouds 26.241 26.241 26.241 28 3.32 m/h 0 %
20:00:00 overcast clouds 23.713 23.713 23.713 29 2.56 m/h 0 %
23:00:00 overcast clouds 21.669 21.669 21.669 34 1.39 m/h 0 %
21-Oct-2019 (Mon)
02:00:00 clear sky 19.906 19.906 19.906 36 1.54 m/h 0 %
05:00:00 clear sky 18.897 18.897 18.897 35 1.79 m/h 0 %
08:00:00 clear sky 22.502 22.502 22.502 30 2.19 m/h 0 %
11:00:00 clear sky 28.055 28.055 28.055 21 0.91 m/h 0 %
14:00:00 clear sky 30.058 30.058 30.058 18 2.72 m/h 0 %
17:00:00 clear sky 27.054 27.054 27.054 27 3.25 m/h 0 %
20:00:00 clear sky 24.103 24.103 24.103 31 3.02 m/h 0 %
23:00:00 scattered clouds 21.804 21.804 21.804 34 1.88 m/h 0 %
22-Oct-2019 (Tue)
02:00:00 clear sky 20.072 20.072 20.072 33 1.73 m/h 0 %
05:00:00 clear sky 19.116 19.116 19.116 33 1.75 m/h 0 %
08:00:00 clear sky 22.951 22.951 22.951 26 0.85 m/h 0 %
11:00:00 clear sky 27.915 27.915 27.915 21 2.63 m/h 0 %
14:00:00 clear sky 29.789 29.789 29.789 21 3.8 m/h 0 %
17:00:00 few clouds 26.579 26.579 26.579 29 2.97 m/h 0 %
20:00:00 overcast clouds 23.850 23.850 23.850 31 2.27 m/h 0 %
23:00:00 overcast clouds 22.562 22.562 22.562 31 2.45 m/h 0 %
23-Oct-2019 (Wed)
02:00:00 overcast clouds 21.525 21.525 21.525 31 1.58 m/h 0 %
05:00:00 overcast clouds 20.928 20.928 20.928 31 1.23 m/h 0 %
08:00:00 overcast clouds 22.973 22.973 22.973 28 2.77 m/h 0 %
11:00:00 overcast clouds 27.384 27.384 27.384 23 2.58 m/h 0 %
14:00:00 overcast clouds 29.611 29.611 29.611 20 0.64 m/h 0 %
17:00:00 scattered clouds 27.250 27.250 27.250 26 2.44 m/h 0 %


Rawalpindi's Tourist Spots

Parks and Zoos in Rawalpindi

Famous Cities (61)